sensor_id;sensor_type;location;lat;lon;timestamp;pressure;altitude;pressure_sealevel;temperature;humidity
60583;BME280;46415;47.536;19.066;2024-03-06T00:00:52;-18426.78;;;7.25;100.00
60583;BME280;46415;47.536;19.066;2024-03-06T00:03:55;-18427.59;;;7.28;100.00
60583;BME280;46415;47.536;19.066;2024-03-06T00:06:58;-18426.91;;;7.26;100.00
60583;BME280;46415;47.536;19.066;2024-03-06T00:10:01;-18424.59;;;7.17;100.00
60583;BME280;46415;47.536;19.066;2024-03-06T00:13:04;-18423.06;;;7.12;100.00
60583;BME280;46415;47.536;19.066;2024-03-06T00:16:07;-18421.28;;;7.05;100.00
60583;BME280;46415;47.536;19.066;2024-03-06T00:19:11;-18418.97;;;6.96;100.00
60583;BME280;46415;47.536;19.066;2024-03-06T00:22:13;-18417.84;;;6.92;100.00
60583;BME280;46415;47.536;19.066;2024-03-06T00:25:16;-18416.75;;;6.88;100.00
60583;BME280;46415;47.536;19.066;2024-03-06T00:28:20;-18416.75;;;6.88;100.00
60583;BME280;46415;47.536;19.066;2024-03-06T00:31:23;-18415.66;;;6.84;100.00
60583;BME280;46415;47.536;19.066;2024-03-06T00:34:26;-18415.53;;;6.84;100.00
60583;BME280;46415;47.536;19.066;2024-03-06T00:37:30;-18416.75;;;6.88;100.00
60583;BME280;46415;47.536;19.066;2024-03-06T00:40:33;-18416.91;;;6.89;100.00
60583;BME280;46415;47.536;19.066;2024-03-06T00:43:36;-18416.34;;;6.87;100.00
60583;BME280;46415;47.536;19.066;2024-03-06T00:46:39;-18417.44;;;6.91;100.00
60583;BME280;46415;47.536;19.066;2024-03-06T00:49:41;-18416.75;;;6.88;100.00
60583;BME280;46415;47.536;19.066;2024-03-06T00:52:45;-18414.84;;;6.81;100.00
60583;BME280;46415;47.536;19.066;2024-03-06T00:55:48;-18415.53;;;6.84;100.00
60583;BME280;46415;47.536;19.066;2024-03-06T00:58:51;-18414.28;;;6.79;100.00
60583;BME280;46415;47.536;19.066;2024-03-06T01:01:54;-18413.47;;;6.76;100.00
60583;BME280;46415;47.536;19.066;2024-03-06T01:05:01;-18412.38;;;6.72;100.00
60583;BME280;46415;47.536;19.066;2024-03-06T01:08:04;-18410.16;;;6.64;100.00
60583;BME280;46415;47.536;19.066;2024-03-06T01:11:08;-18407.28;;;6.53;100.00
60583;BME280;46415;47.536;19.066;2024-03-06T01:14:11;-18405.63;;;6.47;100.00
60583;BME280;46415;47.536;19.066;2024-03-06T01:17:14;-18404.94;;;6.45;100.00
60583;BME280;46415;47.536;19.066;2024-03-06T01:20:16;-18403.72;;;6.40;100.00
60583;BME280;46415;47.536;19.066;2024-03-06T01:23:19;-18403.56;;;6.40;100.00
60583;BME280;46415;47.536;19.066;2024-03-06T01:26:22;-18403.28;;;6.39;100.00
60583;BME280;46415;47.536;19.066;2024-03-06T01:29:25;-18402.47;;;6.36;100.00
60583;BME280;46415;47.536;19.066;2024-03-06T01:32:28;-18401.37;;;6.32;100.00
60583;BME280;46415;47.536;19.066;2024-03-06T01:35:31;-18401.37;;;6.32;100.00
60583;BME280;46415;47.536;19.066;2024-03-06T01:38:34;-18400.81;;;6.30;100.00
60583;BME280;46415;47.536;19.066;2024-03-06T01:41:37;-18400.00;;;6.27;100.00
60583;BME280;46415;47.536;19.066;2024-03-06T01:44:40;-18399.59;;;6.25;100.00
60583;BME280;46415;47.536;19.066;2024-03-06T01:47:43;-18397.81;;;6.19;100.00
60583;BME280;46415;47.536;19.066;2024-03-06T01:50:46;-18396.16;;;6.12;100.00
60583;BME280;46415;47.536;19.066;2024-03-06T01:53:49;-18394.22;;;6.05;100.00
60583;BME280;46415;47.536;19.066;2024-03-06T01:56:53;-18393.53;;;6.03;100.00
60583;BME280;46415;47.536;19.066;2024-03-06T01:59:58;-18392.44;;;5.99;100.00
60583;BME280;46415;47.536;19.066;2024-03-06T02:03:01;-18391.91;;;5.97;100.00
60583;BME280;46415;47.536;19.066;2024-03-06T02:06:05;-18391.06;;;5.94;100.00
60583;BME280;46415;47.536;19.066;2024-03-06T02:09:08;-18393.41;;;6.02;100.00
60583;BME280;46415;47.536;19.066;2024-03-06T02:12:12;-18392.44;;;5.99;100.00
60583;BME280;46415;47.536;19.066;2024-03-06T02:15:15;-18392.16;;;5.98;100.00
60583;BME280;46415;47.536;19.066;2024-03-06T02:18:18;-18390.94;;;5.93;100.00
60583;BME280;46415;47.536;19.066;2024-03-06T02:21:22;-18389.56;;;5.88;100.00
60583;BME280;46415;47.536;19.066;2024-03-06T02:24:25;-18389.16;;;5.87;100.00
60583;BME280;46415;47.536;19.066;2024-03-06T02:27:28;-18388.31;;;5.84;100.00
60583;BME280;46415;47.536;19.066;2024-03-06T02:30:31;-18386.94;;;5.79;100.00
60583;BME280;46415;47.536;19.066;2024-03-06T02:33:40;-18386.41;;;5.77;100.00
60583;BME280;46415;47.536;19.066;2024-03-06T02:36:43;-18385.56;;;5.73;100.00
60583;BME280;46415;47.536;19.066;2024-03-06T02:39:46;-18383.91;;;5.67;100.00
60583;BME280;46415;47.536;19.066;2024-03-06T02:42:49;-18383.09;;;5.64;100.00
60583;BME280;46415;47.536;19.066;2024-03-06T02:45:51;-18382.69;;;5.63;100.00
60583;BME280;46415;47.536;19.066;2024-03-06T02:48:54;-18381.44;;;5.58;100.00
60583;BME280;46415;47.536;19.066;2024-03-06T02:51:57;-18380.34;;;5.54;100.00
60583;BME280;46415;47.536;19.066;2024-03-06T02:55:00;-18379.38;;;5.51;100.00
60583;BME280;46415;47.536;19.066;2024-03-06T02:58:03;-18378.97;;;5.49;100.00
60583;BME280;46415;47.536;19.066;2024-03-06T03:01:06;-18378.56;;;5.48;100.00
60583;BME280;46415;47.536;19.066;2024-03-06T03:04:12;-18377.06;;;5.42;100.00
60583;BME280;46415;47.536;19.066;2024-03-06T03:07:15;-18376.09;;;5.39;100.00
60583;BME280;46415;47.536;19.066;2024-03-06T03:10:18;-18374.72;;;5.33;100.00
60583;BME280;46415;47.536;19.066;2024-03-06T03:13:21;-18376.22;;;5.39;100.00
60583;BME280;46415;47.536;19.066;2024-03-06T03:16:25;-18375.53;;;5.37;100.00
60583;BME280;46415;47.536;19.066;2024-03-06T03:19:28;-18374.84;;;5.34;100.00
60583;BME280;46415;47.536;19.066;2024-03-06T03:22:31;-18374.56;;;5.33;100.00
60583;BME280;46415;47.536;19.066;2024-03-06T03:25:35;-18374.72;;;5.33;100.00
60583;BME280;46415;47.536;19.066;2024-03-06T03:28:38;-18374.84;;;5.34;100.00
60583;BME280;46415;47.536;19.066;2024-03-06T03:31:45;-18374.72;;;5.33;100.00
60583;BME280;46415;47.536;19.066;2024-03-06T03:34:47;-18374.16;;;5.31;100.00
60583;BME280;46415;47.536;19.066;2024-03-06T03:37:51;-18374.16;;;5.31;100.00
60583;BME280;46415;47.536;19.066;2024-03-06T03:40:54;-18372.50;;;5.25;100.00
60583;BME280;46415;47.536;19.066;2024-03-06T03:43:57;-18370.03;;;5.16;100.00
60583;BME280;46415;47.536;19.066;2024-03-06T03:47:00;-18371.56;;;5.22;100.00
60583;BME280;46415;47.536;19.066;2024-03-06T03:50:03;-18373.19;;;5.28;100.00
60583;BME280;46415;47.536;19.066;2024-03-06T03:53:12;-18373.47;;;5.29;100.00
60583;BME280;46415;47.536;19.066;2024-03-06T03:56:16;-18373.06;;;5.27;100.00
60583;BME280;46415;47.536;19.066;2024-03-06T03:59:19;-18370.44;;;5.18;100.00
60583;BME280;46415;47.536;19.066;2024-03-06T04:02:22;-18370.31;;;5.17;100.00
60583;BME280;46415;47.536;19.066;2024-03-06T04:05:25;-18370.31;;;5.17;100.00
60583;BME280;46415;47.536;19.066;2024-03-06T04:08:28;-18367.97;;;5.09;100.00
60583;BME280;46415;47.536;19.066;2024-03-06T04:11:31;-18366.75;;;5.04;100.00
60583;BME280;46415;47.536;19.066;2024-03-06T04:14:36;-18364.81;;;4.97;100.00
60583;BME280;46415;47.536;19.066;2024-03-06T04:17:39;-18364.00;;;4.94;100.00
60583;BME280;46415;47.536;19.066;2024-03-06T04:20:43;-18363.44;;;4.92;100.00
60583;BME280;46415;47.536;19.066;2024-03-06T04:23:47;-18362.34;;;4.88;100.00
60583;BME280;46415;47.536;19.066;2024-03-06T04:26:49;-18361.50;;;4.85;100.00
60583;BME280;46415;47.536;19.066;2024-03-06T04:29:52;-18360.81;;;4.82;100.00
60583;BME280;46415;47.536;19.066;2024-03-06T04:32:55;-18359.59;;;4.78;100.00
60583;BME280;46415;47.536;19.066;2024-03-06T04:35:58;-18358.75;;;4.75;100.00
60583;BME280;46415;47.536;19.066;2024-03-06T04:39:02;-18357.78;;;4.71;100.00
60583;BME280;46415;47.536;19.066;2024-03-06T04:42:10;-18358.06;;;4.72;100.00
60583;BME280;46415;47.536;19.066;2024-03-06T04:45:15;-18357.94;;;4.72;100.00
60583;BME280;46415;47.536;19.066;2024-03-06T04:48:19;-18357.66;;;4.71;100.00
60583;BME280;46415;47.536;19.066;2024-03-06T04:51:22;-18357.94;;;4.72;100.00
60583;BME280;46415;47.536;19.066;2024-03-06T04:54:25;-18356.84;;;4.68;100.00
60583;BME280;46415;47.536;19.066;2024-03-06T04:57:27;-18356.56;;;4.67;100.00
60583;BME280;46415;47.536;19.066;2024-03-06T05:00:30;-18357.53;;;4.70;100.00
60583;BME280;46415;47.536;19.066;2024-03-06T05:03:33;-18359.59;;;4.78;100.00
60583;BME280;46415;47.536;19.066;2024-03-06T05:06:54;-18362.19;;;4.87;100.00
60583;BME280;46415;47.536;19.066;2024-03-06T05:10:15;-18363.31;;;4.91;100.00
60583;BME280;46415;47.536;19.066;2024-03-06T05:13:36;-18364.00;;;4.94;100.00
60583;BME280;46415;47.536;19.066;2024-03-06T05:16:57;-18363.31;;;4.91;100.00
60583;BME280;46415;47.536;19.066;2024-03-06T05:20:17;-18364.25;;;4.95;100.00
60583;BME280;46415;47.536;19.066;2024-03-06T05:23:37;-18364.00;;;4.94;100.00
60583;BME280;46415;47.536;19.066;2024-03-06T05:26:58;-18363.56;;;4.92;100.00
60583;BME280;46415;47.536;19.066;2024-03-06T05:30:18;-18363.44;;;4.92;100.00
60583;BME280;46415;47.536;19.066;2024-03-06T05:33:38;-18363.56;;;4.92;100.00
60583;BME280;46415;47.536;19.066;2024-03-06T05:36:59;-18363.44;;;4.92;100.00
60583;BME280;46415;47.536;19.066;2024-03-06T05:40:19;-18364.00;;;4.94;100.00
60583;BME280;46415;47.536;19.066;2024-03-06T05:43:39;-18364.81;;;4.97;100.00
60583;BME280;46415;47.536;19.066;2024-03-06T05:47:02;-18365.91;;;5.01;100.00
60583;BME280;46415;47.536;19.066;2024-03-06T05:50:22;-18365.63;;;5.00;100.00
60583;BME280;46415;47.536;19.066;2024-03-06T05:53:43;-18366.75;;;5.04;100.00
60583;BME280;46415;47.536;19.066;2024-03-06T05:57:04;-18367.00;;;5.05;100.00
60583;BME280;46415;47.536;19.066;2024-03-06T06:00:24;-18367.00;;;5.05;100.00
60583;BME280;46415;47.536;19.066;2024-03-06T06:03:28;-18368.81;;;5.12;100.00
60583;BME280;46415;47.536;19.066;2024-03-06T06:06:30;-18371.41;;;5.21;100.00
60583;BME280;46415;47.536;19.066;2024-03-06T06:09:33;-18373.75;;;5.30;100.00
60583;BME280;46415;47.536;19.066;2024-03-06T06:12:36;-18378.56;;;5.48;100.00
60583;BME280;46415;47.536;19.066;2024-03-06T06:15:39;-18382.28;;;5.61;100.00
60583;BME280;46415;47.536;19.066;2024-03-06T06:18:41;-18384.88;;;5.71;100.00
60583;BME280;46415;47.536;19.066;2024-03-06T06:21:45;-18387.91;;;5.82;100.00
60583;BME280;46415;47.536;19.066;2024-03-06T06:24:49;-18389.84;;;5.89;100.00
60583;BME280;46415;47.536;19.066;2024-03-06T06:27:52;-18391.22;;;5.94;100.00
60583;BME280;46415;47.536;19.066;2024-03-06T06:30:55;-18396.16;;;6.12;100.00
60583;BME280;46415;47.536;19.066;2024-03-06T06:33:58;-18399.31;;;6.24;100.00
60583;BME280;46415;47.536;19.066;2024-03-06T06:37:01;-18403.28;;;6.39;100.00
60583;BME280;46415;47.536;19.066;2024-03-06T06:40:06;-18405.50;;;6.47;100.00
60583;BME280;46415;47.536;19.066;2024-03-06T06:43:10;-18410.16;;;6.64;100.00
60583;BME280;46415;47.536;19.066;2024-03-06T06:46:13;-18413.88;;;6.78;100.00
60583;BME280;46415;47.536;19.066;2024-03-06T06:49:16;-18420.06;;;7.01;100.00
60583;BME280;46415;47.536;19.066;2024-03-06T06:52:20;-18421.44;;;7.06;100.00
60583;BME280;46415;47.536;19.066;2024-03-06T06:55:23;-18426.66;;;7.25;100.00
60583;BME280;46415;47.536;19.066;2024-03-06T06:58:27;-18430.47;;;7.39;100.00
60583;BME280;46415;47.536;19.066;2024-03-06T07:01:30;-18435.16;;;7.56;100.00
60583;BME280;46415;47.536;19.066;2024-03-06T07:04:33;-18437.06;;;7.63;100.00
60583;BME280;46415;47.536;19.066;2024-03-06T07:07:37;-18438.44;;;7.68;100.00
60583;BME280;46415;47.536;19.066;2024-03-06T07:10:40;-18441.47;;;7.79;100.00
60583;BME280;46415;47.536;19.066;2024-03-06T07:13:44;-18448.31;;;8.05;100.00
60583;BME280;46415;47.536;19.066;2024-03-06T07:16:47;-18457.25;;;8.38;100.00
60583;BME280;46415;47.536;19.066;2024-03-06T07:19:49;-18465.06;;;8.67;100.00
60583;BME280;46415;47.536;19.066;2024-03-06T07:22:53;-18469.87;;;8.84;100.00
60583;BME280;46415;47.536;19.066;2024-03-06T07:25:56;-18468.63;;;8.80;100.00
60583;BME280;46415;47.536;19.066;2024-03-06T07:29:00;-18466.56;;;8.72;100.00
60583;BME280;46415;47.536;19.066;2024-03-06T07:32:04;-18471.38;;;8.90;100.00
60583;BME280;46415;47.536;19.066;2024-03-06T07:35:09;-18479.88;;;9.21;100.00
60583;BME280;46415;47.536;19.066;2024-03-06T07:38:12;-18486.19;;;9.45;100.00
60583;BME280;46415;47.536;19.066;2024-03-06T07:41:15;-18492.87;;;9.69;100.00
60583;BME280;46415;47.536;19.066;2024-03-06T07:44:19;-18500.28;;;9.97;100.00
60583;BME280;46415;47.536;19.066;2024-03-06T07:47:22;-18504.41;;;10.12;100.00
60583;BME280;46415;47.536;19.066;2024-03-06T07:50:26;-18505.78;;;10.17;100.00
60583;BME280;46415;47.536;19.066;2024-03-06T07:53:30;-18504.12;;;10.11;100.00
60583;BME280;46415;47.536;19.066;2024-03-06T07:56:33;-18501.38;;;10.01;100.00
60583;BME280;46415;47.536;19.066;2024-03-06T07:59:36;-18501.94;;;10.03;100.00
60583;BME280;46415;47.536;19.066;2024-03-06T08:02:42;-18501.09;;;10.00;100.00
60583;BME280;46415;47.536;19.066;2024-03-06T08:05:46;-18497.41;;;9.86;100.00
60583;BME280;46415;47.536;19.066;2024-03-06T08:08:49;-18502.88;;;10.06;100.00
60583;BME280;46415;47.536;19.066;2024-03-06T08:11:52;-18507.13;;;10.22;100.00
60583;BME280;46415;47.536;19.066;2024-03-06T08:14:57;-18513.56;;;10.46;100.00
60583;BME280;46415;47.536;19.066;2024-03-06T08:18:00;-18513.31;;;10.45;100.00
60583;BME280;46415;47.536;19.066;2024-03-06T08:21:03;-18517.69;;;10.61;100.00
60583;BME280;46415;47.536;19.066;2024-03-06T08:24:08;-18521.38;;;10.75;100.00
60583;BME280;46415;47.536;19.066;2024-03-06T08:27:11;-18516.44;;;10.56;100.00
60583;BME280;46415;47.536;19.066;2024-03-06T08:30:14;-18514.94;;;10.51;100.00
60583;BME280;46415;47.536;19.066;2024-03-06T08:33:16;-18509.06;;;10.29;100.00
60583;BME280;46415;47.536;19.066;2024-03-06T08:36:20;-18510.44;;;10.34;100.00
60583;BME280;46415;47.536;19.066;2024-03-06T08:39:23;-18520.44;;;10.71;100.00
60583;BME280;46415;47.536;19.066;2024-03-06T08:42:36;-18523.28;;;10.82;100.00
60583;BME280;46415;47.536;19.066;2024-03-06T08:45:38;-18526.16;;;10.92;100.00
60583;BME280;46415;47.536;19.066;2024-03-06T08:48:41;-18534.38;;;11.23;100.00
60583;BME280;46415;47.536;19.066;2024-03-06T08:51:44;-18539.44;;;11.41;100.00
60583;BME280;46415;47.536;19.066;2024-03-06T08:54:48;-18545.19;;;11.63;100.00
60583;BME280;46415;47.536;19.066;2024-03-06T08:57:51;-18552.44;;;11.90;100.00
60583;BME280;46415;47.536;19.066;2024-03-06T09:00:55;-18554.63;;;11.98;100.00
60583;BME280;46415;47.536;19.066;2024-03-06T09:03:58;-18559.16;;;12.14;100.00
60583;BME280;46415;47.536;19.066;2024-03-06T09:07:01;-18563.78;;;12.32;100.00
60583;BME280;46415;47.536;19.066;2024-03-06T09:10:07;-18568.31;;;12.48;99.40
60583;BME280;46415;47.536;19.066;2024-03-06T09:13:10;-18570.09;;;12.55;96.92
60583;BME280;46415;47.536;19.066;2024-03-06T09:16:13;-18571.72;;;12.61;96.84
60583;BME280;46415;47.536;19.066;2024-03-06T09:19:17;-18576.50;;;12.79;95.42
60583;BME280;46415;47.536;19.066;2024-03-06T09:22:21;-18584.84;;;13.09;93.47
60583;BME280;46415;47.536;19.066;2024-03-06T09:25:24;-18586.63;;;13.16;92.30
60583;BME280;46415;47.536;19.066;2024-03-06T09:28:31;-18580.88;;;12.95;89.12
60583;BME280;46415;47.536;19.066;2024-03-06T09:31:34;-18581.44;;;12.97;89.54
60583;BME280;46415;47.536;19.066;2024-03-06T09:34:37;-18582.66;;;13.01;89.65
60583;BME280;46415;47.536;19.066;2024-03-06T09:37:40;-18580.59;;;12.94;88.41
60583;BME280;46415;47.536;19.066;2024-03-06T09:40:45;-18584.03;;;13.06;88.74
60583;BME280;46415;47.536;19.066;2024-03-06T09:43:49;-18588.12;;;13.22;88.29
60583;BME280;46415;47.536;19.066;2024-03-06T09:46:52;-18592.38;;;13.37;87.08
60583;BME280;46415;47.536;19.066;2024-03-06T09:49:57;-18590.72;;;13.31;85.97
60583;BME280;46415;47.536;19.066;2024-03-06T09:53:00;-18593.31;;;13.41;85.22
60583;BME280;46415;47.536;19.066;2024-03-06T09:56:04;-18595.62;;;13.49;85.07
60583;BME280;46415;47.536;19.066;2024-03-06T09:59:08;-18608.19;;;13.96;83.66
60583;BME280;46415;47.536;19.066;2024-03-06T10:02:41;-18618.44;;;14.34;82.52
60583;BME280;46415;47.536;19.066;2024-03-06T10:05:48;-18632.63;;;14.87;80.66
60583;BME280;46415;47.536;19.066;2024-03-06T10:08:51;-18635.78;;;14.98;78.18
60583;BME280;46415;47.536;19.066;2024-03-06T10:11:55;-18642.47;;;15.23;78.21
60583;BME280;46415;47.536;19.066;2024-03-06T10:15:05;-18646.13;;;15.37;76.84
60583;BME280;46415;47.536;19.066;2024-03-06T10:18:15;-18647.50;;;15.42;77.27
60583;BME280;46415;47.536;19.066;2024-03-06T10:21:29;-18663.31;;;16.01;74.81
60583;BME280;46415;47.536;19.066;2024-03-06T10:24:34;-18657.59;;;15.79;74.60
60583;BME280;46415;47.536;19.066;2024-03-06T10:27:37;-18663.03;;;16.00;74.66
60583;BME280;46415;47.536;19.066;2024-03-06T10:30:41;-18673.13;;;16.37;72.06
60583;BME280;46415;47.536;19.066;2024-03-06T10:33:46;-18685.66;;;16.84;69.46
60583;BME280;46415;47.536;19.066;2024-03-06T10:36:56;-18685.94;;;16.85;68.68
60583;BME280;46415;47.536;19.066;2024-03-06T10:40:02;-18685.66;;;16.84;68.72
60583;BME280;46415;47.536;19.066;2024-03-06T10:43:09;-18694.38;;;17.16;67.62
60583;BME280;46415;47.536;19.066;2024-03-06T10:46:13;-18692.47;;;17.09;68.51
60583;BME280;46415;47.536;19.066;2024-03-06T10:49:17;-18699.16;;;17.34;66.25
60583;BME280;46415;47.536;19.066;2024-03-06T10:52:21;-18698.19;;;17.30;66.97
60583;BME280;46415;47.536;19.066;2024-03-06T10:55:25;-18704.31;;;17.53;65.53
60583;BME280;46415;47.536;19.066;2024-03-06T10:58:30;-18687.56;;;16.91;66.79
60583;BME280;46415;47.536;19.066;2024-03-06T11:01:35;-18690.84;;;17.03;67.46
60583;BME280;46415;47.536;19.066;2024-03-06T11:04:39;-18686.34;;;16.86;66.27
60583;BME280;46415;47.536;19.066;2024-03-06T11:07:43;-18683.22;;;16.74;67.99
60583;BME280;46415;47.536;19.066;2024-03-06T11:10:46;-18693.28;;;17.12;66.08
60583;BME280;46415;47.536;19.066;2024-03-06T11:13:49;-18688.38;;;16.94;66.63
60583;BME280;46415;47.536;19.066;2024-03-06T11:17:06;-18688.53;;;16.94;67.48
60583;BME280;46415;47.536;19.066;2024-03-06T11:20:19;-18678.84;;;16.58;68.21
60583;BME280;46415;47.536;19.066;2024-03-06T11:23:22;-18680.09;;;16.63;67.30
60583;BME280;46415;47.536;19.066;2024-03-06T11:26:28;-18683.22;;;16.74;66.67
60583;BME280;46415;47.536;19.066;2024-03-06T11:33:17;-18689.22;;;16.97;67.31
60583;BME280;46415;47.536;19.066;2024-03-06T11:36:27;-18696.41;;;17.24;66.26
60583;BME280;46415;47.536;19.066;2024-03-06T11:39:35;-18699.28;;;17.34;65.03
60583;BME280;46415;47.536;19.066;2024-03-06T11:42:39;-18696.28;;;17.23;67.00
60583;BME280;46415;47.536;19.066;2024-03-06T11:45:46;-18701.88;;;17.44;65.62
60583;BME280;46415;47.536;19.066;2024-03-06T11:48:55;-18700.38;;;17.38;65.43
60583;BME280;46415;47.536;19.066;2024-03-06T11:52:03;-18695.75;;;17.21;66.50
60583;BME280;46415;47.536;19.066;2024-03-06T11:55:07;-18692.19;;;17.08;68.75
60583;BME280;46415;47.536;19.066;2024-03-06T11:58:11;-18695.88;;;17.22;66.24
60583;BME280;46415;47.536;19.066;2024-03-06T12:01:14;-18693.00;;;17.11;68.70
60583;BME280;46415;47.536;19.066;2024-03-06T12:04:19;-18702.41;;;17.46;66.74
60583;BME280;46415;47.536;19.066;2024-03-06T12:07:21;-18705.41;;;17.57;65.44
60583;BME280;46415;47.536;19.066;2024-03-06T12:10:25;-18700.91;;;17.40;65.32
60583;BME280;46415;47.536;19.066;2024-03-06T12:13:28;-18691.78;;;17.06;66.80
60583;BME280;46415;47.536;19.066;2024-03-06T12:16:31;-18691.78;;;17.06;68.28
60583;BME280;46415;47.536;19.066;2024-03-06T12:19:35;-18685.94;;;16.85;67.85
60583;BME280;46415;47.536;19.066;2024-03-06T12:22:44;-18682.66;;;16.72;68.55
60583;BME280;46415;47.536;19.066;2024-03-06T12:25:46;-18690.56;;;17.02;68.20
60583;BME280;46415;47.536;19.066;2024-03-06T12:29:08;-18698.19;;;17.30;64.98
60583;BME280;46415;47.536;19.066;2024-03-06T12:32:17;-18688.38;;;16.94;64.72
60583;BME280;46415;47.536;19.066;2024-03-06T12:35:28;-18676.69;;;16.50;66.26
60583;BME280;46415;47.536;19.066;2024-03-06T12:38:31;-18670.28;;;16.26;67.76
60583;BME280;46415;47.536;19.066;2024-03-06T12:41:34;-18674.34;;;16.42;67.33
60583;BME280;46415;47.536;19.066;2024-03-06T12:44:40;-18686.75;;;16.88;65.33
60583;BME280;46415;47.536;19.066;2024-03-06T12:47:45;-18694.38;;;17.16;64.10
60583;BME280;46415;47.536;19.066;2024-03-06T12:50:50;-18698.75;;;17.32;64.23
60583;BME280;46415;47.536;19.066;2024-03-06T12:53:54;-18708.94;;;17.70;62.44
60583;BME280;46415;47.536;19.066;2024-03-06T12:56:57;-18726.22;;;18.34;60.54
60583;BME280;46415;47.536;19.066;2024-03-06T13:00:01;-18740.62;;;18.88;58.85
60583;BME280;46415;47.536;19.066;2024-03-06T13:03:03;-18756.28;;;19.46;55.99
60583;BME280;46415;47.536;19.066;2024-03-06T13:06:06;-18752.31;;;19.32;54.62
60583;BME280;46415;47.536;19.066;2024-03-06T13:09:09;-18745.53;;;19.06;54.17
60583;BME280;46415;47.536;19.066;2024-03-06T13:12:12;-18750.97;;;19.27;54.75
60583;BME280;46415;47.536;19.066;2024-03-06T13:15:15;-18740.09;;;18.86;55.52
60583;BME280;46415;47.536;19.066;2024-03-06T13:18:18;-18737.91;;;18.78;53.95
60583;BME280;46415;47.536;19.066;2024-03-06T13:21:21;-18712.34;;;17.83;55.88
60583;BME280;46415;47.536;19.066;2024-03-06T13:24:24;-18689.88;;;16.99;66.82
60583;BME280;46415;47.536;19.066;2024-03-06T13:27:26;-18658.13;;;15.81;79.20
60583;BME280;46415;47.536;19.066;2024-03-06T13:30:29;-18650.22;;;15.52;85.86
60583;BME280;46415;47.536;19.066;2024-03-06T13:33:33;-18644.78;;;15.32;83.49
60583;BME280;46415;47.536;19.066;2024-03-06T13:36:36;-18643.13;;;15.26;79.23
60583;BME280;46415;47.536;19.066;2024-03-06T13:39:39;-18641.50;;;15.20;81.37
60583;BME280;46415;47.536;19.066;2024-03-06T13:42:43;-18641.50;;;15.20;84.72
60583;BME280;46415;47.536;19.066;2024-03-06T13:45:51;-18643.97;;;15.29;88.67
60583;BME280;46415;47.536;19.066;2024-03-06T13:48:55;-18646.41;;;15.38;88.45
60583;BME280;46415;47.536;19.066;2024-03-06T13:51:57;-18647.22;;;15.41;87.72
60583;BME280;46415;47.536;19.066;2024-03-06T13:55:03;-18649.28;;;15.48;89.72
60583;BME280;46415;47.536;19.066;2024-03-06T13:58:09;-18654.06;;;15.66;92.34
60583;BME280;46415;47.536;19.066;2024-03-06T14:01:12;-18656.22;;;15.74;84.54
60583;BME280;46415;47.536;19.066;2024-03-06T14:04:15;-18660.06;;;15.88;84.86
60583;BME280;46415;47.536;19.066;2024-03-06T14:07:20;-18661.13;;;15.92;79.12
60583;BME280;46415;47.536;19.066;2024-03-06T14:10:23;-18662.78;;;15.99;79.17
60583;BME280;46415;47.536;19.066;2024-03-06T14:13:27;-18661.56;;;15.94;77.76
60583;BME280;46415;47.536;19.066;2024-03-06T14:16:30;-18658.28;;;15.82;79.81
60583;BME280;46415;47.536;19.066;2024-03-06T14:19:32;-18662.22;;;15.97;81.21
60583;BME280;46415;47.536;19.066;2024-03-06T14:22:35;-18663.19;;;16.00;83.69
60583;BME280;46415;47.536;19.066;2024-03-06T14:25:38;-18658.41;;;15.82;79.30
60583;BME280;46415;47.536;19.066;2024-03-06T14:28:41;-18645.59;;;15.35;83.49
60583;BME280;46415;47.536;19.066;2024-03-06T14:31:44;-18635.78;;;14.98;90.04
60583;BME280;46415;47.536;19.066;2024-03-06T14:34:47;-18629.22;;;14.74;81.48
60583;BME280;46415;47.536;19.066;2024-03-06T14:37:49;-18617.22;;;14.29;89.72
60583;BME280;46415;47.536;19.066;2024-03-06T14:40:52;-18623.22;;;14.52;92.16
60583;BME280;46415;47.536;19.066;2024-03-06T14:43:55;-18631.53;;;14.83;90.08
60583;BME280;46415;47.536;19.066;2024-03-06T14:46:58;-18636.03;;;14.99;84.54
60583;BME280;46415;47.536;19.066;2024-03-06T14:50:01;-18637.69;;;15.05;81.46
60583;BME280;46415;47.536;19.066;2024-03-06T14:53:06;-18634.53;;;14.94;80.89
60583;BME280;46415;47.536;19.066;2024-03-06T14:56:09;-18645.31;;;15.34;85.16
60583;BME280;46415;47.536;19.066;2024-03-06T14:59:13;-18663.31;;;16.01;76.67
60583;BME280;46415;47.536;19.066;2024-03-06T15:02:16;-18684.56;;;16.80;74.49
60583;BME280;46415;47.536;19.066;2024-03-06T15:05:19;-18692.63;;;17.09;71.00
60583;BME280;46415;47.536;19.066;2024-03-06T15:08:23;-18701.72;;;17.43;64.61
60583;BME280;46415;47.536;19.066;2024-03-06T15:11:26;-18699.81;;;17.36;66.42
60583;BME280;46415;47.536;19.066;2024-03-06T15:14:32;-18690.97;;;17.03;68.49
60583;BME280;46415;47.536;19.066;2024-03-06T15:17:44;-18711.13;;;17.78;65.47
60583;BME280;46415;47.536;19.066;2024-03-06T15:20:50;-18726.22;;;18.34;62.47
60583;BME280;46415;47.536;19.066;2024-03-06T15:23:53;-18726.75;;;18.36;61.80
60583;BME280;46415;47.536;19.066;2024-03-06T15:26:56;-18731.53;;;18.54;61.44
60583;BME280;46415;47.536;19.066;2024-03-06T15:30:00;-18745.25;;;19.05;58.02
60583;BME280;46415;47.536;19.066;2024-03-06T15:33:04;-18761.97;;;19.68;56.12
60583;BME280;46415;47.536;19.066;2024-03-06T15:36:07;-18778.13;;;20.28;52.74
60583;BME280;46415;47.536;19.066;2024-03-06T15:39:10;-18777.44;;;20.25;51.52
60583;BME280;46415;47.536;19.066;2024-03-06T15:42:13;-18757.75;;;19.52;52.62
60583;BME280;46415;47.536;19.066;2024-03-06T15:45:16;-18748.25;;;19.16;55.07
60583;BME280;46415;47.536;19.066;2024-03-06T15:48:19;-18722.81;;;18.22;58.87
60583;BME280;46415;47.536;19.066;2024-03-06T15:51:21;-18724.31;;;18.27;59.74
60583;BME280;46415;47.536;19.066;2024-03-06T15:54:25;-18703.38;;;17.49;62.93